Time;durP1;ratioP1;P1;durP2;ratioP2;P2;SDS_P1;SDS_P2;PMS_P1;PMS_P2;Temp;Humidity;BMP_temperature;BMP_pressure;BME280_temperature;BME280_humidity;BME280_pressure;Samples;Min_cycle;Max_cycle;Signal;HPM_P1;HPM_P2
2021/09/05 00:00:39;;;;;;;31.10;21.92;;;;;;;13.17;96.71;101548.19;5007053;28;20061;-81
2021/09/05 00:03:04;;;;;;;33.40;22.67;;;;;;;13.22;96.27;101545.03;4998037;28;20132;-85
2021/09/05 00:05:31;;;;;;;29.77;20.20;;;;;;;13.18;95.91;101554.47;5004547;28;20054;-84
2021/09/05 00:07:59;;;;;;;30.08;21.45;;;;;;;13.19;96.06;101548.88;4983706;28;20057;-82
2021/09/05 00:10:24;;;;;;;29.17;19.55;;;;;;;13.18;96.18;101551.75;4985848;28;20088;-86
2021/09/05 00:12:50;;;;;;;31.88;18.60;;;;;;;13.15;96.22;101544.84;5006727;28;20069;-86
2021/09/05 00:15:16;;;;;;;29.92;19.23;;;;;;;13.16;96.17;101551.91;5000975;28;20123;-84
2021/09/05 00:17:43;;;;;;;29.58;19.35;;;;;;;13.17;96.02;101544.66;5005725;28;20050;-83
2021/09/05 00:20:11;;;;;;;29.05;18.67;;;;;;;13.17;95.51;101542.81;5000911;28;20038;-83
2021/09/05 00:22:36;;;;;;;28.30;18.90;;;;;;;13.14;95.71;101543.13;5006039;28;20046;-83
2021/09/05 00:25:03;;;;;;;29.65;18.70;;;;;;;13.09;95.97;101540.94;5001127;28;20129;-83
2021/09/05 00:27:28;;;;;;;29.98;18.70;;;;;;;13.06;96.04;101546.66;5004713;28;20056;-88
2021/09/05 00:29:53;;;;;;;28.90;18.98;;;;;;;13.05;96.32;101554.91;5016162;28;20371;-86
2021/09/05 00:32:19;;;;;;;29.75;18.80;;;;;;;13.04;95.96;101548.66;4998189;28;20042;-84
2021/09/05 00:34:44;;;;;;;28.92;18.85;;;;;;;13.02;96.01;101549.84;4999016;28;20534;-85
2021/09/05 00:37:10;;;;;;;27.15;18.83;;;;;;;13.01;95.78;101548.16;5003345;28;20073;-86
2021/09/05 00:39:35;;;;;;;29.95;18.38;;;;;;;12.98;96.21;101543.09;5001204;28;20038;-83
2021/09/05 00:42:00;;;;;;;29.20;18.63;;;;;;;12.95;96.14;101546.94;5005686;28;20042;-84
2021/09/05 00:44:26;;;;;;;31.85;18.85;;;;;;;12.93;96.19;101548.94;4998369;28;20050;-88
2021/09/05 00:46:51;;;;;;;27.85;18.38;;;;;;;12.92;95.88;101547.28;4999541;28;20486;-84
2021/09/05 00:49:17;;;;;;;30.20;17.58;;;;;;;12.87;96.25;101546.91;5019063;28;20034;-80
2021/09/05 00:51:43;;;;;;;31.08;18.48;;;;;;;12.80;96.43;101541.31;4998787;28;20061;-83
2021/09/05 00:54:11;;;;;;;31.42;17.00;;;;;;;12.77;96.61;101544.31;5001187;28;20121;-84
2021/09/05 00:56:39;;;;;;;29.02;17.73;;;;;;;12.71;97.00;101547.66;5019417;28;20054;-82
2021/09/05 00:59:07;;;;;;;33.25;18.75;;;;;;;12.65;96.89;101551.00;4998320;28;20026;-84
2021/09/05 01:01:33;;;;;;;30.92;19.00;;;;;;;12.62;97.01;101543.22;5018578;28;20042;-81
2021/09/05 01:03:59;;;;;;;28.90;17.50;;;;;;;12.56;97.07;101546.56;4998622;28;20109;-84
2021/09/05 01:06:25;;;;;;;29.65;17.48;;;;;;;12.52;97.34;101553.28;5007215;28;20137;-85
2021/09/05 01:08:52;;;;;;;30.45;17.50;;;;;;;12.47;97.12;101548.34;5005353;28;20076;-83
2021/09/05 01:11:18;;;;;;;29.67;18.65;;;;;;;12.41;97.36;101557.91;5003082;28;20472;-80
2021/09/05 01:13:43;;;;;;;34.83;19.27;;;;;;;12.39;97.37;101556.38;5012850;28;20263;-80
2021/09/05 01:16:30;;;;;;;30.88;18.10;;;;;;;12.38;97.62;101563.63;5001792;28;20561;-86
2021/09/05 01:19:16;;;;;;;27.88;17.98;;;;;;;12.32;97.55;101563.41;5001904;28;20259;-80
2021/09/05 01:21:43;;;;;;;26.63;17.58;;;;;;;12.30;97.78;101565.41;5003549;28;20041;-83
2021/09/05 01:24:10;;;;;;;31.25;17.42;;;;;;;12.23;98.05;101565.19;5001739;28;20431;-83
2021/09/05 01:26:38;;;;;;;30.15;17.73;;;;;;;12.17;98.13;101560.44;5020611;28;20065;-81
2021/09/05 01:29:05;;;;;;;32.85;18.90;;;;;;;12.23;98.04;101561.63;5006110;28;20295;-88
2021/09/05 01:31:48;;;;;;;29.55;17.20;;;;;;;12.23;98.27;101559.81;5001799;28;20060;-82
2021/09/05 01:34:16;;;;;;;29.67;18.75;;;;;;;12.22;98.54;101562.63;4999816;28;20042;-85
2021/09/05 01:36:42;;;;;;;29.20;17.02;;;;;;;12.13;99.02;101564.41;4997935;28;20034;-84
2021/09/05 01:39:10;;;;;;;29.85;17.90;;;;;;;12.14;98.85;101569.66;5002827;28;20545;-84
2021/09/05 01:41:35;;;;;;;33.15;18.70;;;;;;;12.16;98.80;101564.94;5002231;28;20143;-81
2021/09/05 01:44:03;;;;;;;29.23;17.20;;;;;;;12.12;98.81;101566.28;4999828;28;20069;-85
2021/09/05 01:46:28;;;;;;;31.00;18.05;;;;;;;12.09;98.75;101553.13;5000755;28;20081;-82
2021/09/05 01:48:54;;;;;;;30.17;18.23;;;;;;;12.10;98.89;101565.56;5001785;28;20038;-86
2021/09/05 01:51:20;;;;;;;29.15;17.65;;;;;;;12.04;98.89;101565.34;5000692;28;20109;-80
2021/09/05 01:53:45;;;;;;;29.38;18.02;;;;;;;11.97;98.66;101562.44;4994175;28;20057;-84
2021/09/05 01:56:10;;;;;;;29.98;17.23;;;;;;;11.96;98.99;101558.88;4997009;28;20188;-82
2021/09/05 01:58:36;;;;;;;30.65;18.42;;;;;;;11.91;99.06;101569.28;4972862;28;20044;-83
2021/09/05 02:01:01;;;;;;;33.55;18.58;;;;;;;11.86;99.06;101563.53;5015826;28;20054;-88
2021/09/05 02:03:27;;;;;;;30.25;18.73;;;;;;;11.83;99.16;101571.88;5011274;28;20038;-86
2021/09/05 02:05:52;;;;;;;27.85;17.77;;;;;;;11.81;99.25;101571.16;4980728;28;20513;-87
2021/09/05 02:08:17;;;;;;;31.58;18.10;;;;;;;11.83;99.05;101571.88;5018380;28;20056;-86
2021/09/05 02:10:43;;;;;;;27.45;17.58;;;;;;;11.78;99.46;101566.09;5001203;28;20042;-86
2021/09/05 02:13:08;;;;;;;32.10;17.67;;;;;;;11.74;99.48;101562.03;4998498;28;20736;-84
2021/09/05 02:15:34;;;;;;;31.48;17.40;;;;;;;11.69;99.56;101561.66;5013897;28;20037;-84
2021/09/05 02:17:59;;;;;;;31.75;18.02;;;;;;;11.67;99.34;101563.63;5005576;28;20046;-81
2021/09/05 02:20:24;;;;;;;32.42;17.85;;;;;;;11.65;99.51;101562.94;5007657;28;20128;-85
2021/09/05 02:22:50;;;;;;;31.70;18.38;;;;;;;11.62;99.18;101565.91;4989410;28;20111;-84
2021/09/05 02:25:15;;;;;;;30.23;18.00;;;;;;;11.58;99.43;101570.75;5000134;28;20061;-84
2021/09/05 02:27:41;;;;;;;30.08;17.48;;;;;;;11.53;99.41;101573.91;5003261;28;20514;-81
2021/09/05 02:30:09;;;;;;;31.30;17.20;;;;;;;11.46;99.39;101570.13;5003819;28;20037;-82
2021/09/05 02:32:34;;;;;;;28.50;17.80;;;;;;;11.43;99.22;101566.91;4997151;28;20487;-84
2021/09/05 02:35:00;;;;;;;29.88;17.60;;;;;;;11.39;99.35;101570.88;4998145;28;20119;-87
2021/09/05 02:37:25;;;;;;;32.85;18.73;;;;;;;11.39;99.29;101571.72;5010718;28;20070;-83
2021/09/05 02:39:50;;;;;;;30.50;17.75;;;;;;;11.38;99.14;101572.72;5005224;28;20275;-82
2021/09/05 02:42:16;;;;;;;31.02;18.52;;;;;;;11.35;99.65;101570.34;5005810;28;20057;-85
2021/09/05 02:44:41;;;;;;;29.90;19.45;;;;;;;11.34;99.79;101574.03;4994186;28;20046;-82
2021/09/05 02:47:06;;;;;;;33.33;18.88;;;;;;;11.36;99.61;101569.34;4973446;28;20261;-86
2021/09/05 02:49:32;;;;;;;32.10;16.83;;;;;;;11.24;99.59;101574.06;5014841;28;20049;-83
2021/09/05 02:51:57;;;;;;;30.67;17.75;;;;;;;11.23;99.86;101576.91;5007286;28;20067;-83
2021/09/05 02:54:22;;;;;;;31.60;18.85;;;;;;;11.18;99.91;101577.34;5005242;28;20483;-83
2021/09/05 02:56:48;;;;;;;30.33;17.95;;;;;;;11.16;100.00;101570.44;5001180;28;20057;-87
2021/09/05 02:59:13;;;;;;;31.90;18.00;;;;;;;11.14;100.00;101577.81;5019810;28;20049;-82
2021/09/05 03:01:38;;;;;;;28.42;17.48;;;;;;;11.13;100.00;101570.75;5000118;28;20490;-86
2021/09/05 03:04:04;;;;;;;27.70;17.50;;;;;;;11.14;99.87;101575.13;4984332;28;20130;-84
2021/09/05 03:06:29;;;;;;;35.88;19.33;;;;;;;11.16;99.79;101570.44;5005061;28;20034;-86
2021/09/05 03:08:54;;;;;;;32.17;19.15;;;;;;;11.19;100.00;101570.13;5002835;28;20054;-80
2021/09/05 03:11:20;;;;;;;32.83;19.42;;;;;;;11.20;100.00;101570.00;5003781;28;20038;-85
2021/09/05 03:13:47;;;;;;;32.70;19.10;;;;;;;11.17;99.93;101570.31;4994906;28;20038;-79
2021/09/05 03:16:13;;;;;;;29.13;18.38;;;;;;;11.15;100.00;101563.38;5007480;28;20050;-86
2021/09/05 03:18:39;;;;;;;34.25;19.40;;;;;;;11.09;100.00;101569.34;4995576;28;20039;-87
2021/09/05 03:21:04;;;;;;;34.28;18.50;;;;;;;11.14;99.94;101569.78;4996535;28;20042;-84
2021/09/05 03:23:30;;;;;;;31.77;20.00;;;;;;;11.13;100.00;101576.94;5001897;28;20054;-86
2021/09/05 03:25:55;;;;;;;34.05;19.77;;;;;;;11.09;100.00;101574.72;5003827;28;20562;-84
2021/09/05 03:28:21;;;;;;;33.03;19.20;;;;;;;11.11;100.00;101578.13;5003525;28;20049;-79
2021/09/05 03:30:46;;;;;;;34.05;19.02;;;;;;;11.03;100.00;101577.00;5014387;28;20052;-87
2021/09/05 03:33:11;;;;;;;33.72;19.25;;;;;;;11.05;100.00;101568.81;5019842;28;20407;-86
2021/09/05 03:35:36;;;;;;;35.05;18.52;;;;;;;11.04;100.00;101567.94;4998147;28;20049;-87
2021/09/05 03:38:02;;;;;;;34.38;19.58;;;;;;;11.04;100.00;101576.00;4981663;28;20034;-80
2021/09/05 03:40:27;;;;;;;31.90;18.10;;;;;;;11.01;100.00;101570.09;5003840;28;20122;-83
2021/09/05 03:42:53;;;;;;;32.75;18.08;;;;;;;10.98;100.00;101573.91;5004235;28;20049;-83
2021/09/05 03:45:18;;;;;;;37.92;20.85;;;;;;;11.01;100.00;101579.00;4988935;28;20499;-83
2021/09/05 03:47:43;;;;;;;35.25;19.80;;;;;;;11.02;100.00;101575.34;5003240;28;20197;-81
2021/09/05 03:50:09;;;;;;;33.17;19.63;;;;;;;11.04;100.00;101572.47;5006228;28;20042;-87
2021/09/05 03:52:35;;;;;;;36.78;22.00;;;;;;;11.06;100.00;101579.41;5023774;28;20047;-80
2021/09/05 03:55:01;;;;;;;37.75;20.58;;;;;;;11.08;100.00;101568.53;5002933;28;20043;-81
2021/09/05 03:57:26;;;;;;;37.33;20.85;;;;;;;11.05;100.00;101577.72;5000461;28;20041;-83
2021/09/05 03:59:52;;;;;;;35.00;20.80;;;;;;;11.06;100.00;101581.25;5000229;28;20075;-86
2021/09/05 04:02:17;;;;;;;36.92;21.00;;;;;;;11.03;100.00;101573.47;5008722;28;20037;-82
2021/09/05 04:04:42;;;;;;;36.10;21.25;;;;;;;11.00;100.00;101577.31;4995662;28;20478;-81
2021/09/05 04:07:11;;;;;;;35.65;21.17;;;;;;;11.01;100.00;101576.31;5001701;28;20184;-84
2021/09/05 04:12:20;;;;;;;40.08;21.42;;;;;;;10.99;100.00;101574.75;5005182;28;20069;-82
2021/09/05 04:14:45;;;;;;;38.97;19.73;;;;;;;11.00;100.00;101571.94;4988667;28;20098;-81
2021/09/05 04:17:10;;;;;;;38.03;21.90;;;;;;;11.06;100.00;101574.03;5022124;28;20042;-79
2021/09/05 04:19:36;;;;;;;38.30;22.08;;;;;;;11.02;100.00;101574.50;4997298;28;20042;-85
2021/09/05 04:22:05;;;;;;;34.63;20.58;;;;;;;10.99;100.00;101578.31;4998412;28;20038;-87
2021/09/05 04:24:30;;;;;;;36.08;22.45;;;;;;;10.98;100.00;101581.97;4999694;28;20041;-80
2021/09/05 04:26:56;;;;;;;40.15;21.05;;;;;;;10.91;100.00;101577.34;4999860;28;20033;-84
2021/09/05 04:29:21;;;;;;;39.42;21.98;;;;;;;10.87;100.00;101576.78;4996881;28;20376;-83
2021/09/05 04:31:47;;;;;;;38.58;20.08;;;;;;;10.87;100.00;101587.53;5005594;28;20259;-81
2021/09/05 04:34:14;;;;;;;39.03;21.00;;;;;;;10.89;100.00;101582.03;5006007;28;20100;-82
2021/09/05 04:36:41;;;;;;;37.35;22.00;;;;;;;10.87;100.00;101579.47;5015105;28;20046;-83
2021/09/05 04:39:06;;;;;;;38.53;21.75;;;;;;;10.88;100.00;101589.22;5002176;28;20033;-81
2021/09/05 04:41:33;;;;;;;37.38;20.83;;;;;;;10.82;100.00;101595.19;4987626;28;20487;-84
2021/09/05 04:44:06;;;;;;;39.33;21.85;;;;;;;10.80;100.00;101592.63;4995357;28;20050;-83
2021/09/05 04:46:32;;;;;;;38.88;21.48;;;;;;;10.78;100.00;101604.53;4998794;28;20034;-83
2021/09/05 04:48:58;;;;;;;41.00;21.45;;;;;;;10.77;100.00;101592.94;5002249;28;20045;-81
2021/09/05 04:51:23;;;;;;;40.13;22.25;;;;;;;10.81;100.00;101604.22;4997922;28;20045;-80
2021/09/05 04:53:48;;;;;;;41.40;22.65;;;;;;;10.80;100.00;101597.16;4994978;28;20076;-80
2021/09/05 04:56:14;;;;;;;43.67;23.52;;;;;;;10.80;100.00;101597.16;4998436;28;20053;-79
2021/09/05 04:58:41;;;;;;;44.47;22.27;;;;;;;10.72;100.00;101603.25;4999722;28;20463;-80
2021/09/05 05:01:07;;;;;;;38.53;22.52;;;;;;;10.64;100.00;101603.13;4999463;28;20137;-82
2021/09/05 05:03:32;;;;;;;38.60;21.30;;;;;;;10.63;100.00;101604.13;5015023;28;20196;-84
2021/09/05 05:06:07;;;;;;;39.55;21.25;;;;;;;10.61;100.00;101614.16;4997054;28;20407;-86
2021/09/05 05:08:33;;;;;;;39.85;22.63;;;;;;;10.57;100.00;101610.94;5002086;28;20050;-84
2021/09/05 05:10:59;;;;;;;40.95;21.48;;;;;;;10.52;100.00;101620.41;5002815;28;20042;-83
2021/09/05 05:13:25;;;;;;;39.70;23.55;;;;;;;10.54;100.00;101624.63;5015672;28;20041;-82
2021/09/05 05:15:50;;;;;;;41.53;21.98;;;;;;;10.60;100.00;101620.53;4996550;28;20052;-78
2021/09/05 05:18:16;;;;;;;40.72;21.73;;;;;;;10.57;100.00;101626.19;4999734;28;20030;-84
2021/09/05 05:20:42;;;;;;;38.00;22.00;;;;;;;10.65;100.00;101620.13;5001190;28;20429;-82
2021/09/05 05:23:07;;;;;;;42.88;21.75;;;;;;;10.60;100.00;101618.69;5002963;28;20053;-81
2021/09/05 05:25:35;;;;;;;45.08;21.80;;;;;;;10.62;100.00;101621.25;5001005;28;20297;-83
2021/09/05 05:28:02;;;;;;;39.10;21.95;;;;;;;10.60;100.00;101617.84;5001234;28;20042;-88
2021/09/05 05:30:30;;;;;;;41.17;23.40;;;;;;;10.66;100.00;101624.47;5000479;28;20544;-82
2021/09/05 05:32:58;;;;;;;37.53;21.65;;;;;;;10.64;100.00;101623.75;5000831;28;20068;-84
2021/09/05 05:35:24;;;;;;;45.73;22.97;;;;;;;10.71;100.00;101624.91;5000137;28;20045;-81
2021/09/05 05:37:49;;;;;;;41.53;22.60;;;;;;;10.76;100.00;101620.78;4987213;28;20091;-79
2021/09/05 05:40:15;;;;;;;38.53;20.38;;;;;;;10.72;100.00;101618.53;4987815;28;20438;-82
2021/09/05 05:42:41;;;;;;;36.15;21.35;;;;;;;10.77;100.00;101621.63;5001417;28;20117;-82
2021/09/05 05:45:08;;;;;;;37.83;21.52;;;;;;;10.78;100.00;101626.00;4997715;28;20054;-85
2021/09/05 05:47:34;;;;;;;37.67;20.85;;;;;;;10.74;100.00;101622.75;4999561;28;20041;-81
2021/09/05 05:50:01;;;;;;;39.22;21.83;;;;;;;10.79;100.00;101630.41;4999951;28;20046;-82
2021/09/05 05:52:31;;;;;;;34.97;21.45;;;;;;;10.83;100.00;101621.03;5000796;28;20124;-81
2021/09/05 05:54:57;;;;;;;37.40;20.63;;;;;;;10.91;100.00;101620.31;5002532;28;20218;-81
2021/09/05 05:57:23;;;;;;;35.20;19.30;;;;;;;10.94;100.00;101626.25;5001495;28;20070;-80
2021/09/05 05:59:57;;;;;;;35.28;20.20;;;;;;;11.00;100.00;101622.13;4998979;28;20042;-85
2021/09/05 06:02:22;;;;;;;35.75;20.20;;;;;;;11.02;100.00;101617.47;5004179;28;20038;-83
2021/09/05 06:04:47;;;;;;;34.70;19.88;;;;;;;11.10;100.00;101622.06;5002840;28;20093;-81
2021/09/05 06:07:13;;;;;;;37.28;20.20;;;;;;;11.18;100.00;101612.28;5010834;28;20042;-83
2021/09/05 06:09:39;;;;;;;34.42;20.05;;;;;;;11.23;100.00;101618.06;5005819;28;20322;-82
2021/09/05 06:12:07;;;;;;;35.17;19.50;;;;;;;11.30;100.00;101621.00;5004655;28;20131;-84
2021/09/05 06:14:32;;;;;;;31.85;19.10;;;;;;;11.37;99.95;101622.09;4996471;28;20046;-83
2021/09/05 06:16:57;;;;;;;30.20;19.10;;;;;;;11.41;100.00;101628.88;5008875;28;20104;-86
2021/09/05 06:19:23;;;;;;;32.22;19.23;;;;;;;11.43;100.00;101631.41;5004787;28;20060;-86
2021/09/05 06:21:48;;;;;;;31.63;18.50;;;;;;;11.46;100.00;101637.31;4995271;28;20046;-83
2021/09/05 06:24:19;;;;;;;30.55;17.83;;;;;;;11.54;100.00;101633.91;4997063;28;20124;-80
2021/09/05 06:26:45;;;;;;;32.05;17.90;;;;;;;11.57;100.00;101648.88;5000076;28;20129;-80
2021/09/05 06:29:10;;;;;;;29.95;18.33;;;;;;;11.61;100.00;101650.28;5000133;28;20152;-86
2021/09/05 06:31:36;;;;;;;32.22;19.27;;;;;;;11.67;99.34;101641.59;5001978;28;20505;-83
2021/09/05 06:34:01;;;;;;;30.50;18.50;;;;;;;11.73;99.31;101649.06;4999363;28;20073;-83
2021/09/05 06:36:27;;;;;;;30.00;18.15;;;;;;;11.83;98.80;101644.47;5007705;28;20076;-86
2021/09/05 06:38:52;;;;;;;30.42;18.50;;;;;;;11.92;97.98;101640.06;4997261;28;20092;-86
2021/09/05 06:41:17;;;;;;;30.48;18.55;;;;;;;11.98;98.04;101644.81;5004668;28;20062;-83
2021/09/05 06:43:43;;;;;;;28.50;18.77;;;;;;;12.03;98.36;101644.38;5004839;28;20057;-82
2021/09/05 06:46:08;;;;;;;29.95;18.35;;;;;;;12.08;98.77;101647.44;5004410;28;20427;-84
2021/09/05 06:48:35;;;;;;;29.58;17.73;;;;;;;12.14;98.90;101639.63;5007933;28;20034;-79
2021/09/05 06:51:00;;;;;;;27.63;17.58;;;;;;;12.19;98.45;101642.66;5002847;28;20514;-83
2021/09/05 06:53:25;;;;;;;33.33;17.88;;;;;;;12.27;98.45;101651.81;5006072;28;20130;-85
2021/09/05 06:55:51;;;;;;;30.40;18.13;;;;;;;12.37;97.63;101645.38;4999977;28;20046;-81
2021/09/05 06:58:16;;;;;;;27.95;16.48;;;;;;;12.38;97.93;101644.34;5003312;28;20108;-84
2021/09/05 07:00:42;;;;;;;27.95;16.58;;;;;;;12.45;97.32;101638.34;5002663;28;20042;-85
2021/09/05 07:03:07;;;;;;;28.90;16.23;;;;;;;12.51;97.51;101651.19;4998348;28;20042;-79
2021/09/05 07:05:32;;;;;;;25.10;15.52;;;;;;;12.59;96.74;101645.88;5001023;28;20445;-81
2021/09/05 07:07:58;;;;;;;26.23;16.33;;;;;;;12.64;96.84;101646.25;4990545;28;20570;-86
2021/09/05 07:10:26;;;;;;;26.67;16.63;;;;;;;12.71;96.41;101649.16;5008596;28;20069;-82
2021/09/05 07:12:52;;;;;;;28.08;16.85;;;;;;;12.79;96.49;101650.03;5003102;28;20051;-79
2021/09/05 07:15:18;;;;;;;25.05;16.10;;;;;;;12.88;96.11;101649.09;5001397;28;20065;-83
2021/09/05 07:17:43;;;;;;;27.20;16.38;;;;;;;13.00;95.58;101654.22;4993086;28;20038;-83
2021/09/05 07:20:09;;;;;;;23.63;15.88;;;;;;;13.04;96.00;101647.53;4995607;28;20038;-83
2021/09/05 07:22:35;;;;;;;26.10;15.32;;;;;;;13.09;95.40;101655.97;4995907;28;20038;-82
2021/09/05 07:25:02;;;;;;;25.23;15.88;;;;;;;13.17;94.91;101661.38;5004290;28;20394;-82
2021/09/05 07:27:28;;;;;;;23.42;15.27;;;;;;;13.29;94.76;101661.97;5002661;28;20050;-79
2021/09/05 07:29:53;;;;;;;25.48;14.68;;;;;;;13.39;94.54;101653.78;5004473;28;20059;-80
2021/09/05 07:32:19;;;;;;;22.95;14.55;;;;;;;13.48;93.68;101653.66;5004473;28;20228;-82
2021/09/05 07:34:45;;;;;;;23.25;14.45;;;;;;;13.57;93.55;101657.22;5006149;28;20509;-82
2021/09/05 07:37:11;;;;;;;25.30;14.70;;;;;;;13.64;92.80;101658.28;4978211;28;20565;-85
2021/09/05 07:39:36;;;;;;;23.75;14.23;;;;;;;13.71;92.71;101658.47;5003863;28;20382;-84
2021/09/05 07:42:02;;;;;;;23.95;14.55;;;;;;;13.77;92.79;101653.25;4994962;28;20058;-83
2021/09/05 07:44:27;;;;;;;25.40;14.55;;;;;;;13.89;92.82;101658.34;4999119;28;20045;-82
2021/09/05 07:46:53;;;;;;;26.38;14.43;;;;;;;13.99;92.04;101659.06;4999568;28;20042;-81
2021/09/05 07:49:18;;;;;;;24.48;15.18;;;;;;;14.13;90.33;101655.69;5006419;28;20104;-82
2021/09/05 07:51:44;;;;;;;23.02;14.00;;;;;;;14.23;90.26;101666.34;5005388;28;20114;-82
2021/09/05 07:54:10;;;;;;;19.80;13.18;;;;;;;14.28;89.74;101655.88;5005532;28;20034;-83
2021/09/05 07:56:35;;;;;;;21.10;14.68;;;;;;;14.42;90.87;101654.38;4991711;28;20046;-85
2021/09/05 07:59:00;;;;;;;24.45;14.35;;;;;;;14.50;90.32;101658.91;5010438;28;20358;-85
2021/09/05 08:01:26;;;;;;;26.73;14.10;;;;;;;14.62;89.98;101665.72;4989367;28;20108;-81
2021/09/05 08:03:53;;;;;;;21.98;13.90;;;;;;;14.69;88.40;101673.97;5011660;28;20091;-87
2021/09/05 08:06:19;;;;;;;19.58;12.73;;;;;;;14.72;86.91;101665.53;5009234;28;20038;-83
2021/09/05 08:08:44;;;;;;;20.13;13.00;;;;;;;14.79;87.90;101669.25;5002317;28;20046;-83
2021/09/05 08:11:10;;;;;;;21.17;12.70;;;;;;;14.83;88.21;101678.69;4999172;28;20108;-82
2021/09/05 08:13:35;;;;;;;21.67;12.68;;;;;;;14.89;87.68;101678.00;5005407;28;20073;-87
2021/09/05 08:16:01;;;;;;;18.77;12.80;;;;;;;14.95;88.16;101684.59;5006981;28;20108;-80
2021/09/05 08:18:30;;;;;;;24.23;13.75;;;;;;;15.04;87.55;101683.53;4998192;28;20431;-80
2021/09/05 08:20:57;;;;;;;21.65;12.73;;;;;;;15.12;87.50;101681.66;5003621;28;20042;-80
2021/09/05 08:23:23;;;;;;;17.45;11.38;;;;;;;15.24;86.77;101697.53;5005852;28;20045;-78
2021/09/05 08:25:51;;;;;;;21.65;13.68;;;;;;;15.33;87.20;101691.06;5001720;28;20483;-83
2021/09/05 08:28:19;;;;;;;20.85;12.85;;;;;;;15.43;87.17;101689.03;5003582;28;20044;-84
2021/09/05 08:30:44;;;;;;;21.67;13.82;;;;;;;15.51;85.12;101697.13;4998323;28;20490;-86
2021/09/05 08:33:11;;;;;;;20.33;11.98;;;;;;;15.62;85.68;101703.16;4998575;28;20137;-81
2021/09/05 08:35:37;;;;;;;18.75;12.25;;;;;;;15.71;85.07;101696.75;4998083;28;20413;-81
2021/09/05 08:38:03;;;;;;;18.50;13.10;;;;;;;15.81;83.89;101702.75;4990400;28;20389;-87
2021/09/05 08:40:28;;;;;;;20.48;13.30;;;;;;;15.90;84.72;101699.00;5000611;28;20049;-84
2021/09/05 08:42:54;;;;;;;20.35;13.05;;;;;;;16.00;84.99;101707.75;4989515;28;20100;-82
2021/09/05 08:45:19;;;;;;;24.38;13.68;;;;;;;16.11;84.45;101711.06;5014382;28;20046;-80
2021/09/05 08:47:45;;;;;;;21.88;13.23;;;;;;;16.19;84.10;101719.13;5006745;28;20068;-83
2021/09/05 08:50:11;;;;;;;23.08;14.00;;;;;;;16.28;84.57;101717.22;5003515;28;20554;-83
2021/09/05 08:52:37;;;;;;;22.73;13.52;;;;;;;16.33;83.52;101717.53;5001258;28;20038;-84
2021/09/05 08:55:04;;;;;;;19.15;12.15;;;;;;;16.40;83.16;101707.66;4999951;28;20083;-80
2021/09/05 08:57:30;;;;;;;21.67;12.77;;;;;;;16.44;82.67;101712.53;5002581;28;20121;-80
2021/09/05 08:59:55;;;;;;;23.35;12.88;;;;;;;16.54;83.06;101719.56;5017763;28;20563;-84
2021/09/05 09:02:21;;;;;;;22.08;12.73;;;;;;;16.67;82.97;101725.25;5003375;28;20042;-85
2021/09/05 09:04:50;;;;;;;20.90;12.93;;;;;;;16.76;81.31;101724.16;5002991;28;20072;-86
2021/09/05 09:07:16;;;;;;;19.75;12.98;;;;;;;16.90;81.06;101720.66;5001688;28;20041;-82
2021/09/05 09:09:58;;;;;;;18.60;11.90;;;;;;;17.04;81.16;101720.88;5004356;28;20030;-85
2021/09/05 09:12:48;;;;;;;20.88;13.32;;;;;;;17.07;80.55;101726.78;4999510;28;20388;-83
2021/09/05 09:15:33;;;;;;;25.38;13.48;;;;;;;17.22;80.85;101728.66;5002152;28;20096;-86
2021/09/05 09:18:00;;;;;;;21.33;12.73;;;;;;;17.32;79.68;101734.66;5003008;28;20470;-83
2021/09/05 09:20:44;;;;;;;21.30;12.25;;;;;;;17.36;78.89;101734.09;4995360;28;20048;-83
2021/09/05 09:23:15;;;;;;;22.55;13.93;;;;;;;17.48;79.82;101734.47;5001762;28;20298;-85
2021/09/05 09:25:53;;;;;;;18.73;12.50;;;;;;;17.53;78.89;101732.06;5013644;28;20045;-85
2021/09/05 09:28:46;;;;;;;18.67;12.13;;;;;;;17.65;77.45;101740.56;4996129;28;20043;-85
2021/09/05 09:31:11;;;;;;;21.42;13.95;;;;;;;17.76;78.04;101734.66;4994194;28;20498;-84
2021/09/05 09:33:37;;;;;;;17.52;11.43;;;;;;;17.86;77.75;101736.25;5004227;28;20180;-80
2021/09/05 09:36:04;;;;;;;19.67;12.60;;;;;;;17.88;76.00;101728.78;5018089;28;20038;-84
2021/09/05 09:38:30;;;;;;;20.08;13.05;;;;;;;17.86;76.34;101731.66;5002155;28;20038;-86
2021/09/05 09:41:07;;;;;;;19.52;12.40;;;;;;;17.95;76.40;101727.84;5001620;28;20053;-85
2021/09/05 09:43:32;;;;;;;18.52;12.10;;;;;;;18.10;76.63;101726.97;4967638;28;20185;-84
2021/09/05 09:46:15;;;;;;;20.15;12.45;;;;;;;18.14;77.56;101729.09;4995723;28;20504;-83
2021/09/05 09:48:45;;;;;;;18.40;12.15;;;;;;;18.26;76.83;101732.97;4997477;28;20121;-85
2021/09/05 09:51:12;;;;;;;20.40;12.60;;;;;;;18.33;77.06;101727.63;5005687;28;20050;-84
2021/09/05 09:53:42;;;;;;;19.55;13.82;;;;;;;18.43;76.94;101730.88;5006433;28;20088;-87
2021/09/05 09:56:10;;;;;;;19.75;12.32;;;;;;;18.54;77.45;101732.22;4997530;28;20511;-79
2021/09/05 09:58:36;;;;;;;17.00;11.53;;;;;;;18.63;75.00;101725.63;4993871;28;20511;-86
2021/09/05 10:01:03;;;;;;;18.23;11.90;;;;;;;18.63;74.10;101724.78;4997979;28;20545;-86
2021/09/05 10:03:31;;;;;;;17.83;11.45;;;;;;;18.80;75.77;101728.13;4995525;28;20069;-84
2021/09/05 10:05:59;;;;;;;16.17;11.50;;;;;;;18.93;74.22;101726.34;4999946;28;20034;-87
2021/09/05 10:08:29;;;;;;;18.48;12.23;;;;;;;18.97;74.13;101729.50;5004235;28;20041;-83
2021/09/05 10:10:58;;;;;;;19.23;12.95;;;;;;;18.91;74.26;101720.25;4987621;28;20125;-80
2021/09/05 10:13:28;;;;;;;18.50;12.30;;;;;;;19.02;73.42;101724.31;4997324;28;20046;-83
2021/09/05 10:15:54;;;;;;;18.67;11.63;;;;;;;19.13;74.06;101722.91;4985927;28;20038;-81
2021/09/05 10:18:21;;;;;;;17.23;12.15;;;;;;;19.30;74.01;101729.75;4999994;28;20057;-82
2021/09/05 10:20:47;;;;;;;18.55;12.48;;;;;;;19.43;72.33;101734.44;4998705;28;20105;-83
2021/09/05 10:23:12;;;;;;;19.70;12.32;;;;;;;19.34;71.90;101724.75;4999359;28;20048;-81
2021/09/05 10:25:38;;;;;;;19.77;12.15;;;;;;;19.39;72.30;101727.69;5017363;28;20038;-84
2021/09/05 10:28:05;;;;;;;17.67;12.18;;;;;;;19.56;72.18;101722.78;4997415;28;20099;-86
2021/09/05 10:30:30;;;;;;;18.58;11.65;;;;;;;19.69;73.02;101722.88;4997365;28;20062;-81
2021/09/05 10:32:57;;;;;;;16.05;11.18;;;;;;;19.80;70.49;101722.31;4997505;28;20471;-82
2021/09/05 10:35:26;;;;;;;19.15;11.35;;;;;;;19.86;71.72;101720.66;4998704;28;20050;-82
2021/09/05 10:38:21;;;;;;;19.25;11.60;;;;;;;20.03;69.97;101724.72;4999548;28;20471;-80
2021/09/05 10:40:49;;;;;;;19.35;11.35;;;;;;;20.01;69.33;101724.06;4984064;28;20041;-84
2021/09/05 10:43:15;;;;;;;19.10;12.03;;;;;;;19.98;70.58;101724.47;5004866;28;20038;-80
2021/09/05 10:45:49;;;;;;;18.20;11.93;;;;;;;20.02;70.92;101717.59;4987856;28;20115;-89
2021/09/05 10:48:44;;;;;;;19.83;12.80;;;;;;;20.07;70.40;101714.22;4992600;28;20368;-82
2021/09/05 10:51:14;;;;;;;16.98;11.65;;;;;;;20.18;70.24;101713.63;4987012;28;20038;-84
2021/09/05 10:53:55;;;;;;;18.20;10.70;;;;;;;20.16;69.73;101709.44;4990753;28;20042;-80
2021/09/05 10:56:20;;;;;;;19.02;10.25;;;;;;;20.34;68.94;101712.44;5020420;28;20050;-80
2021/09/05 10:58:51;;;;;;;16.50;11.07;;;;;;;20.45;68.59;101711.78;4997786;28;20388;-86
2021/09/05 11:01:46;;;;;;;17.58;11.23;;;;;;;20.59;69.38;101701.78;4995924;28;20586;-84
2021/09/05 11:04:14;;;;;;;21.10;11.70;;;;;;;20.64;69.27;101702.00;4992286;28;20053;-84
2021/09/05 11:06:45;;;;;;;19.93;12.40;;;;;;;20.62;68.75;101689.63;4996728;28;20048;-84
2021/09/05 11:09:20;;;;;;;15.65;11.63;;;;;;;20.79;69.31;101700.97;4999340;28;20284;-85